Time;durP1;ratioP1;P1;durP2;ratioP2;P2;SDS_P1;SDS_P2;PMS_P1;PMS_P2;Temp;Humidity;BMP_temperature;BMP_pressure;BME280_temperature;BME280_humidity;BME280_pressure;Samples;Min_cycle;Max_cycle;Signal;HPM_P1;HPM_P2
2021/11/14 00:01:23;;;;;;;0.40;0.30;;;;;;;7.57;97.91;101327.34;5073512;28;20437;-70
2021/11/14 00:03:50;;;;;;;7.30;5.13;;;;;;;7.50;98.04;101335.66;5073772;28;20445;-70
2021/11/14 00:06:20;;;;;;;0.40;0.30;;;;;;;7.52;97.95;101324.63;5073392;28;20453;-70
2021/11/14 00:08:46;;;;;;;0.80;0.80;;;;;;;7.50;98.23;101319.50;5073386;28;20445;-70
2021/11/14 00:11:14;;;;;;;0.40;0.30;;;;;;;7.49;98.82;101323.28;5073298;28;20481;-69
2021/11/14 00:13:43;;;;;;;0.40;0.30;;;;;;;7.50;99.38;101332.16;5074651;28;20445;-69
2021/11/14 00:16:12;;;;;;;0.40;0.30;;;;;;;7.52;100.00;101327.31;5073290;28;20465;-70
2021/11/14 00:18:40;;;;;;;0.40;0.30;;;;;;;7.56;100.00;101337.31;5073273;28;20859;-70
2021/11/14 00:21:08;;;;;;;0.40;0.30;;;;;;;7.52;100.00;101340.78;5073314;28;20790;-70
2021/11/14 00:23:35;;;;;;;0.40;0.30;;;;;;;7.62;100.00;101338.16;5073258;28;20445;-70
2021/11/14 00:26:01;;;;;;;0.40;0.30;;;;;;;7.68;100.00;101334.41;5073173;28;20472;-70
2021/11/14 00:28:28;;;;;;;0.40;0.30;;;;;;;7.68;100.00;101333.59;5072850;28;20852;-70
2021/11/14 00:30:54;;;;;;;0.40;0.30;;;;;;;7.67;100.00;101338.19;5073107;28;20527;-70
2021/11/14 00:33:22;;;;;;;0.40;0.27;;;;;;;7.57;100.00;101338.94;5073165;28;20429;-70
2021/11/14 00:35:52;;;;;;;0.40;0.30;;;;;;;7.66;100.00;101333.88;5072495;28;20990;-70
2021/11/14 00:38:19;;;;;;;0.40;0.30;;;;;;;7.76;100.00;101335.78;5073110;28;20442;-70
2021/11/14 00:40:45;;;;;;;0.40;0.20;;;;;;;7.80;100.00;101337.69;5072792;28;20441;-70
2021/11/14 00:43:12;;;;;;;0.63;0.60;;;;;;;7.78;100.00;101342.53;5073208;28;20452;-70
2021/11/14 00:45:40;;;;;;;0.40;0.20;;;;;;;7.71;100.00;101339.28;5073080;28;20461;-70
2021/11/14 00:48:07;;;;;;;0.90;0.90;;;;;;;7.74;99.84;101344.13;5073040;28;20453;-70
2021/11/14 00:50:38;;;;;;;0.40;0.30;;;;;;;7.73;99.08;101337.13;5072913;28;20445;-70
2021/11/14 00:53:05;;;;;;;0.40;0.30;;;;;;;7.66;99.60;101347.34;5073043;28;20426;-70
2021/11/14 00:55:34;;;;;;;0.40;0.30;;;;;;;7.64;99.66;101351.38;5072913;28;20523;-70
2021/11/14 00:58:01;;;;;;;0.40;0.30;;;;;;;7.63;99.76;101358.66;5072652;28;20930;-70
2021/11/14 01:00:29;;;;;;;0.40;0.30;;;;;;;7.65;99.54;101350.28;5072889;28;20453;-70
2021/11/14 01:02:56;;;;;;;0.40;0.30;;;;;;;7.56;99.88;101348.09;5068837;28;20560;-70
2021/11/14 01:05:24;;;;;;;0.40;0.30;;;;;;;7.61;100.00;101355.38;5052693;28;20462;-70
2021/11/14 01:07:52;;;;;;;0.40;0.27;;;;;;;7.65;100.00;101356.50;5052809;28;20450;-70
2021/11/14 01:10:21;;;;;;;0.40;0.30;;;;;;;7.69;100.00;101356.78;5052813;28;20484;-70
2021/11/14 01:12:47;;;;;;;0.40;0.30;;;;;;;7.74;100.00;101354.91;5052347;28;20484;-70
2021/11/14 01:15:15;;;;;;;0.50;0.43;;;;;;;7.77;100.00;101359.78;5052319;28;20469;-70
2021/11/14 01:17:42;;;;;;;0.40;0.30;;;;;;;7.79;100.00;101364.91;5052726;28;20495;-70
2021/11/14 01:20:12;;;;;;;0.40;0.30;;;;;;;7.84;100.00;101364.97;5052367;28;20845;-70
2021/11/14 01:22:39;;;;;;;0.40;0.30;;;;;;;7.91;100.00;101367.41;5052293;28;20466;-70
2021/11/14 01:25:10;;;;;;;0.40;0.40;;;;;;;7.96;100.00;101375.50;5052552;28;20470;-70
2021/11/14 01:27:37;;;;;;;0.40;0.30;;;;;;;7.95;100.00;101385.50;5052358;28;20896;-70
2021/11/14 01:30:05;;;;;;;0.40;0.20;;;;;;;7.99;100.00;101385.78;5052447;28;20474;-70
2021/11/14 01:32:31;;;;;;;1.43;0.77;;;;;;;7.98;100.00;101387.66;5052506;28;20486;-70
2021/11/14 01:34:58;;;;;;;0.40;0.30;;;;;;;7.96;100.00;101383.59;5052443;28;20449;-70
2021/11/14 01:37:24;;;;;;;0.40;0.30;;;;;;;7.89;100.00;101381.16;5052544;28;20453;-70
2021/11/14 01:39:51;;;;;;;0.40;0.30;;;;;;;7.90;100.00;101382.78;5052576;28;20442;-70
2021/11/14 01:42:18;;;;;;;0.57;0.57;;;;;;;7.91;100.00;101392.47;5052473;28;20438;-70
2021/11/14 01:44:45;;;;;;;2.00;1.90;;;;;;;7.92;100.00;101391.41;5052401;28;20453;-70
2021/11/14 01:47:11;;;;;;;0.40;0.30;;;;;;;7.92;99.23;101390.59;5054123;28;20445;-70
2021/11/14 01:49:38;;;;;;;0.40;0.27;;;;;;;7.90;98.39;101390.06;5055999;28;20442;-70
2021/11/14 01:52:05;;;;;;;0.40;0.30;;;;;;;7.86;98.18;101391.66;5055911;28;20531;-70
2021/11/14 01:54:32;;;;;;;0.40;0.30;;;;;;;7.82;98.13;101388.66;5055920;28;20453;-69
2021/11/14 01:56:59;;;;;;;0.40;0.30;;;;;;;7.80;98.76;101391.63;5055815;28;20474;-70
2021/11/14 01:59:27;;;;;;;0.40;0.37;;;;;;;7.80;98.81;101393.53;5055803;28;20446;-70
2021/11/14 02:01:53;;;;;;;0.40;0.40;;;;;;;7.75;99.01;101394.31;5055474;28;20963;-70
2021/11/14 02:04:20;;;;;;;0.60;0.60;;;;;;;7.73;99.47;101401.03;5055461;28;20461;-69
2021/11/14 02:06:47;;;;;;;0.40;0.30;;;;;;;7.76;99.40;101400.50;5055600;28;20494;-70
2021/11/14 02:09:14;;;;;;;0.40;0.30;;;;;;;7.75;99.61;101397.00;5055589;28;20507;-70
2021/11/14 02:11:41;;;;;;;0.40;0.40;;;;;;;7.82;99.65;101405.66;5055466;28;20490;-70
2021/11/14 02:14:08;;;;;;;0.53;0.53;;;;;;;7.76;100.00;101409.41;5055186;28;20967;-70
2021/11/14 02:16:36;;;;;;;0.40;0.30;;;;;;;7.81;100.00;101414.03;5055571;28;20462;-70
2021/11/14 02:19:03;;;;;;;2.30;2.20;;;;;;;7.87;100.00;101415.66;5055154;28;20825;-70
2021/11/14 02:21:31;;;;;;;0.40;0.30;;;;;;;7.96;100.00;101418.66;5054936;28;20826;-69
2021/11/14 02:23:58;;;;;;;5.77;5.37;;;;;;;8.02;100.00;101425.72;5055107;28;20919;-70
2021/11/14 02:26:25;;;;;;;0.40;0.30;;;;;;;7.99;100.00;101432.44;5055243;28;20838;-70
2021/11/14 02:28:52;;;;;;;2.30;1.80;;;;;;;8.00;100.00;101433.25;5054962;28;20940;-70
2021/11/14 02:31:20;;;;;;;0.90;0.90;;;;;;;8.03;100.00;101444.34;5055119;28;20438;-70
2021/11/14 02:33:46;;;;;;;0.40;0.30;;;;;;;8.05;100.00;101442.19;5055177;28;20860;-70
2021/11/14 02:36:13;;;;;;;0.40;0.30;;;;;;;8.01;100.00;101443.81;5055036;28;20462;-69
2021/11/14 02:38:42;;;;;;;0.63;0.63;;;;;;;8.02;99.74;101441.91;5055141;28;20453;-69
2021/11/14 02:41:09;;;;;;;0.50;0.40;;;;;;;7.99;99.24;101453.22;5055016;28;20486;-70
2021/11/14 02:43:37;;;;;;;0.40;0.30;;;;;;;7.95;99.45;101447.53;5055016;28;20446;-69
2021/11/14 02:46:05;;;;;;;1.23;1.13;;;;;;;7.89;99.44;101445.09;5054850;28;20485;-69
2021/11/14 02:48:32;;;;;;;0.40;0.30;;;;;;;7.87;98.75;101452.63;5054902;28;20442;-69
2021/11/14 02:50:59;;;;;;;0.40;0.30;;;;;;;7.86;98.28;101453.69;5054920;28;20450;-69
2021/11/14 02:53:26;;;;;;;0.40;0.30;;;;;;;7.83;98.57;101461.25;5054734;28;20931;-69
2021/11/14 02:55:55;;;;;;;0.40;0.30;;;;;;;7.82;98.32;101456.91;5054735;28;20477;-69
2021/11/14 02:58:23;;;;;;;1.43;1.33;;;;;;;7.80;97.67;101456.38;5054275;28;20446;-70
2021/11/14 03:00:53;;;;;;;0.40;0.30;;;;;;;7.77;97.59;101464.16;5054802;28;20446;-69
2021/11/14 03:03:20;;;;;;;0.40;0.30;;;;;;;7.76;97.79;101463.34;5054671;28;20425;-70
2021/11/14 03:05:47;;;;;;;0.40;0.30;;;;;;;7.77;98.16;101462.28;5054538;28;20462;-69
2021/11/14 03:08:13;;;;;;;0.40;0.30;;;;;;;7.79;98.66;101473.63;5054524;28;20488;-69
2021/11/14 03:10:41;;;;;;;0.40;0.30;;;;;;;7.75;99.42;101467.13;5054473;28;20449;-69
2021/11/14 03:13:11;;;;;;;1.13;1.03;;;;;;;7.79;99.41;101465.53;5054296;28;20493;-69
2021/11/14 03:15:41;;;;;;;9.13;4.17;;;;;;;7.81;99.34;101476.06;5054225;28;20481;-69
2021/11/14 03:18:08;;;;;;;0.40;0.30;;;;;;;7.82;99.61;101480.38;5054353;28;20442;-69
2021/11/14 03:20:35;;;;;;;0.47;0.40;;;;;;;7.88;99.97;101478.50;5053962;28;20935;-69
2021/11/14 03:23:03;;;;;;;1.63;1.53;;;;;;;7.88;100.00;101476.66;5053879;28;20457;-69
2021/11/14 03:25:30;;;;;;;3.70;3.40;;;;;;;7.85;100.00;101479.84;5054105;28;20465;-70
2021/11/14 03:27:58;;;;;;;0.40;0.40;;;;;;;7.88;100.00;101490.13;5054144;28;20444;-69
2021/11/14 03:30:27;;;;;;;0.40;0.30;;;;;;;7.82;100.00;101481.19;5053767;28;20979;-69
2021/11/14 03:32:54;;;;;;;3.03;2.20;;;;;;;7.85;100.00;101482.56;5053657;28;20504;-70
2021/11/14 03:35:23;;;;;;;2.60;2.40;;;;;;;7.89;100.00;101485.53;5053953;28;20458;-70
2021/11/14 03:37:50;;;;;;;0.40;0.30;;;;;;;7.89;100.00;101486.34;5053914;28;20449;-70
2021/11/14 03:40:19;;;;;;;12.00;9.53;;;;;;;7.93;99.62;101489.34;5053885;28;20449;-69
2021/11/14 03:42:46;;;;;;;0.83;0.83;;;;;;;7.92;99.32;101485.81;5053899;28;20476;-70
2021/11/14 03:45:13;;;;;;;0.50;0.50;;;;;;;7.92;98.77;101490.41;5053767;28;20462;-70
2021/11/14 03:47:41;;;;;;;1.07;1.07;;;;;;;7.92;98.06;101491.22;5053873;28;20438;-70
2021/11/14 03:50:10;;;;;;;2.43;2.33;;;;;;;7.90;97.27;101501.47;5053718;28;20443;-69
2021/11/14 03:52:40;;;;;;;0.40;0.30;;;;;;;7.84;96.93;101489.03;5053591;28;20485;-70
2021/11/14 03:55:08;;;;;;;0.43;0.40;;;;;;;7.87;96.62;101493.06;5053612;28;20462;-70
2021/11/14 03:57:35;;;;;;;0.40;0.27;;;;;;;7.85;96.03;101487.94;5053660;28;20460;-70
2021/11/14 04:00:02;;;;;;;0.40;0.30;;;;;;;7.80;96.06;101494.13;5053547;28;20435;-69
2021/11/14 04:02:29;;;;;;;0.83;0.83;;;;;;;7.81;95.36;101501.13;5053508;28;20457;-70
2021/11/14 04:04:57;;;;;;;1.37;1.27;;;;;;;7.80;95.55;101499.50;5053461;28;20831;-70
2021/11/14 04:07:24;;;;;;;0.40;0.30;;;;;;;7.76;96.21;101498.41;5053479;28;20454;-69
2021/11/14 04:09:50;;;;;;;2.40;2.20;;;;;;;7.83;96.84;101500.84;5065248;28;20473;-69
2021/11/14 04:12:17;;;;;;;1.73;1.63;;;;;;;7.79;97.63;101500.59;5073347;28;20614;-69
2021/11/14 04:14:43;;;;;;;0.90;0.90;;;;;;;7.79;97.96;101497.91;5073208;28;20448;-70
2021/11/14 04:17:10;;;;;;;0.50;0.40;;;;;;;7.83;98.02;101499.00;5073005;28;20816;-70
2021/11/14 04:19:36;;;;;;;0.60;0.60;;;;;;;7.84;98.12;101506.00;5073346;28;20463;-70
2021/11/14 04:22:04;;;;;;;0.40;0.30;;;;;;;7.83;98.34;101514.34;5072980;28;20465;-70
2021/11/14 04:24:31;;;;;;;0.40;0.30;;;;;;;7.86;98.55;101507.63;5073291;28;20454;-70
2021/11/14 04:26:57;;;;;;;0.40;0.30;;;;;;;7.86;98.30;101508.44;5073163;28;20484;-70
2021/11/14 04:29:24;;;;;;;0.40;0.30;;;;;;;7.88;98.52;101509.00;5073214;28;20453;-70
2021/11/14 04:31:50;;;;;;;0.50;0.50;;;;;;;7.89;98.64;101513.31;5073137;28;20494;-70
2021/11/14 04:34:17;;;;;;;2.77;2.67;;;;;;;7.92;98.64;101512.78;5073286;28;20448;-70
2021/11/14 04:36:43;;;;;;;0.40;0.20;;;;;;;7.91;98.42;101516.56;5073057;28;20458;-70
2021/11/14 04:39:11;;;;;;;0.40;0.40;;;;;;;7.88;97.94;101517.09;5072877;28;20441;-70
2021/11/14 04:41:38;;;;;;;3.60;3.30;;;;;;;7.86;97.33;101531.91;5072826;28;20942;-70
2021/11/14 04:44:05;;;;;;;0.40;0.30;;;;;;;7.82;96.52;101534.31;5073110;28;20441;-70
2021/11/14 04:46:31;;;;;;;0.53;0.53;;;;;;;7.68;96.11;101536.63;5073026;28;20457;-70
2021/11/14 04:48:57;;;;;;;0.40;0.30;;;;;;;7.69;95.87;101530.16;5073040;28;20445;-70
2021/11/14 04:51:24;;;;;;;0.40;0.30;;;;;;;7.69;95.82;101530.16;5073055;28;20472;-70
2021/11/14 04:53:50;;;;;;;0.40;0.30;;;;;;;7.69;96.20;101532.06;5072954;28;20893;-70
2021/11/14 04:56:18;;;;;;;0.40;0.30;;;;;;;7.72;96.55;101534.25;5072944;28;20477;-69
2021/11/14 04:58:45;;;;;;;0.40;0.30;;;;;;;7.73;97.25;101546.66;5072941;28;20495;-69
2021/11/14 05:01:12;;;;;;;0.40;0.30;;;;;;;7.72;97.45;101545.03;5072909;28;20437;-70
2021/11/14 05:03:39;;;;;;;0.40;0.30;;;;;;;7.68;96.96;101552.81;5072925;28;20440;-70
2021/11/14 05:06:08;;;;;;;9.30;8.70;;;;;;;7.60;96.23;101553.28;5072817;28;20472;-70
2021/11/14 05:08:35;;;;;;;0.40;0.30;;;;;;;7.44;96.79;101552.34;5072856;28;20516;-70
2021/11/14 05:11:01;;;;;;;0.80;0.80;;;;;;;7.50;96.15;101550.50;5072800;28;20464;-70
2021/11/14 05:13:29;;;;;;;7.87;7.23;;;;;;;7.53;95.11;101558.09;5072744;28;20488;-70
2021/11/14 05:15:55;;;;;;;0.40;0.30;;;;;;;7.54;94.95;101559.72;5072695;28;20464;-70
2021/11/14 05:18:22;;;;;;;0.40;0.30;;;;;;;7.51;95.05;101568.31;5072955;28;20833;-70
2021/11/14 05:20:48;;;;;;;0.50;0.30;;;;;;;7.44;94.69;101573.91;5072740;28;20449;-70
2021/11/14 05:23:16;;;;;;;0.40;0.30;;;;;;;7.40;94.22;101575.50;5075821;28;20511;-69
2021/11/14 05:25:43;;;;;;;1.43;1.37;;;;;;;7.37;94.45;101578.69;5076057;28;20978;-69
2021/11/14 05:28:10;;;;;;;0.40;0.30;;;;;;;7.33;95.06;101588.34;5076395;28;20498;-69
2021/11/14 05:30:38;;;;;;;0.40;0.30;;;;;;;7.26;96.51;101593.13;5076076;28;20905;-69
2021/11/14 05:33:05;;;;;;;0.40;0.30;;;;;;;7.20;97.66;101605.72;5075970;28;20905;-69
2021/11/14 05:35:31;;;;;;;0.40;0.30;;;;;;;7.22;97.70;101598.22;5076165;28;20460;-70
2021/11/14 05:37:58;;;;;;;0.70;0.70;;;;;;;7.20;97.83;101600.34;5075967;28;20445;-69
2021/11/14 05:40:25;;;;;;;0.40;0.30;;;;;;;7.19;97.83;101609.50;5076209;28;20456;-70
2021/11/14 05:42:51;;;;;;;0.40;0.30;;;;;;;7.23;98.10;101618.72;5076093;28;20449;-70
2021/11/14 05:45:18;;;;;;;0.50;0.40;;;;;;;7.19;97.99;101620.28;5076050;28;20457;-69
2021/11/14 05:47:45;;;;;;;0.40;0.30;;;;;;;7.16;97.97;101639.63;5075744;28;20918;-70
2021/11/14 05:50:12;;;;;;;0.50;0.47;;;;;;;7.05;97.83;101633.31;5076010;28;20441;-69
2021/11/14 05:52:40;;;;;;;0.40;0.30;;;;;;;6.98;97.93;101637.25;5075851;28;20477;-70
2021/11/14 05:55:08;;;;;;;0.40;0.30;;;;;;;6.87;97.80;101641.72;5075524;28;21040;-70
2021/11/14 05:57:44;;;;;;;1.53;1.43;;;;;;;6.73;97.47;101649.34;5075868;28;20441;-70
2021/11/14 06:00:15;;;;;;;0.40;0.30;;;;;;;6.67;97.60;101652.22;5075877;28;20628;-69
2021/11/14 06:02:44;;;;;;;0.40;0.30;;;;;;;6.62;97.29;101655.66;5075555;28;20452;-69
2021/11/14 06:05:15;;;;;;;2.20;2.10;;;;;;;6.62;97.32;101671.78;5075934;28;20500;-70
2021/11/14 06:07:42;;;;;;;0.40;0.30;;;;;;;6.57;97.51;101660.97;5075647;28;20483;-69
2021/11/14 06:10:09;;;;;;;0.40;0.30;;;;;;;6.48;96.79;101665.94;5075641;28;20449;-69
2021/11/14 06:12:37;;;;;;;2.67;2.57;;;;;;;6.50;97.07;101674.56;5076956;28;20488;-69
2021/11/14 06:15:05;;;;;;;0.40;0.30;;;;;;;6.43;96.99;101682.03;5075458;28;20496;-69
2021/11/14 06:17:31;;;;;;;0.40;0.30;;;;;;;6.39;97.83;101680.06;5075524;28;20833;-69
2021/11/14 06:19:58;;;;;;;0.40;0.30;;;;;;;6.38;97.18;101691.91;5066930;28;20489;-70
2021/11/14 06:22:25;;;;;;;0.70;0.70;;;;;;;6.29;98.92;101686.94;5054980;28;20987;-70
2021/11/14 06:24:52;;;;;;;0.70;0.70;;;;;;;6.38;99.13;101690.03;5055299;28;20442;-69
2021/11/14 06:27:18;;;;;;;5.43;1.57;;;;;;;6.40;99.24;101697.84;5055249;28;20495;-69
2021/11/14 06:29:45;;;;;;;0.40;0.30;;;;;;;6.38;99.39;101698.09;5055245;28;20453;-69
2021/11/14 06:32:11;;;;;;;0.60;0.60;;;;;;;6.42;99.46;101706.47;5054779;28;20869;-69
2021/11/14 06:34:38;;;;;;;1.87;0.93;;;;;;;6.35;98.95;101711.22;5055151;28;20492;-69
2021/11/14 06:37:05;;;;;;;0.40;0.30;;;;;;;6.37;99.17;101707.22;5054751;28;20466;-69
2021/11/14 06:39:33;;;;;;;1.17;1.07;;;;;;;6.37;98.79;101711.78;5055108;28;20454;-69
2021/11/14 06:42:00;;;;;;;0.40;0.30;;;;;;;6.24;98.78;101713.75;5055064;28;20492;-69
2021/11/14 06:44:26;;;;;;;0.40;0.20;;;;;;;6.20;99.03;101728.75;5057913;28;20449;-69
2021/11/14 06:46:55;;;;;;;3.53;3.33;;;;;;;6.14;99.16;101735.09;5074568;28;20978;-69
2021/11/14 06:49:21;;;;;;;0.40;0.30;;;;;;;6.15;99.11;101736.72;5075034;28;20445;-68
2021/11/14 06:51:48;;;;;;;0.50;0.40;;;;;;;6.00;99.08;101749.91;5074900;28;20441;-69
2021/11/14 06:54:14;;;;;;;0.70;0.70;;;;;;;5.97;98.63;101753.88;5074412;28;20897;-69
2021/11/14 06:56:42;;;;;;;0.40;0.30;;;;;;;5.96;98.34;101760.31;5074390;28;20465;-69
2021/11/14 06:59:09;;;;;;;0.40;0.30;;;;;;;5.95;97.58;101755.19;5074726;28;20803;-69
2021/11/14 07:01:35;;;;;;;0.40;0.30;;;;;;;5.95;97.42;101769.44;5074734;28;20445;-69
2021/11/14 07:04:03;;;;;;;0.87;0.60;;;;;;;5.92;96.95;101761.84;5074661;28;20445;-68
2021/11/14 07:06:29;;;;;;;0.40;0.30;;;;;;;5.86;96.31;101770.84;5074475;28;20465;-68
2021/11/14 07:08:56;;;;;;;0.40;0.30;;;;;;;5.81;96.43;101774.28;5074489;28;20449;-69
2021/11/14 07:11:22;;;;;;;0.40;0.30;;;;;;;5.66;97.86;101773.13;5074472;28;20446;-68
2021/11/14 07:13:50;;;;;;;0.40;0.30;;;;;;;5.64;98.07;101781.44;5074351;28;20481;-68
2021/11/14 07:16:16;;;;;;;0.40;0.30;;;;;;;5.54;99.33;101775.88;5074263;28;20468;-68
2021/11/14 07:18:43;;;;;;;0.40;0.30;;;;;;;5.60;99.02;101782.16;5074325;28;20437;-68
2021/11/14 07:21:09;;;;;;;0.40;0.20;;;;;;;5.58;98.45;101779.72;5074066;28;20448;-68
2021/11/14 07:23:36;;;;;;;0.40;0.20;;;;;;;5.60;98.70;101785.66;5074193;28;20434;-69
2021/11/14 07:26:02;;;;;;;0.40;0.30;;;;;;;5.69;99.78;101776.19;5074083;28;20472;-68
2021/11/14 07:28:29;;;;;;;0.40;0.30;;;;;;;5.69;99.79;101778.88;5074142;28;20449;-68
2021/11/14 07:30:56;;;;;;;0.40;0.30;;;;;;;5.79;99.96;101776.38;5074100;28;20449;-68
2021/11/14 07:33:23;;;;;;;1.33;1.30;;;;;;;5.85;100.00;101774.63;5074007;28;20480;-68
2021/11/14 07:35:49;;;;;;;0.50;0.27;;;;;;;5.91;100.00;101780.91;5058616;28;20481;-68
2021/11/14 07:38:16;;;;;;;0.93;0.90;;;;;;;5.94;99.79;101786.66;5053978;28;20444;-68
2021/11/14 07:40:42;;;;;;;0.40;0.30;;;;;;;6.01;99.44;101783.78;5053922;28;20446;-69
2021/11/14 07:43:09;;;;;;;0.40;0.20;;;;;;;6.07;99.23;101796.31;5053881;28;20504;-68
2021/11/14 07:45:35;;;;;;;0.40;0.30;;;;;;;6.12;99.05;101796.38;5053015;28;20462;-69
2021/11/14 07:48:06;;;;;;;0.70;0.70;;;;;;;6.18;98.84;101798.09;5053812;28;20449;-68
2021/11/14 07:50:32;;;;;;;0.40;0.30;;;;;;;6.28;98.42;101800.97;5053753;28;20445;-68
2021/11/14 07:53:00;;;;;;;0.70;0.70;;;;;;;6.35;98.27;101808.09;5053592;28;20449;-68
2021/11/14 07:55:27;;;;;;;0.40;0.20;;;;;;;6.31;98.53;101811.25;5067501;28;20504;-69
2021/11/14 07:57:54;;;;;;;0.40;0.20;;;;;;;6.41;97.84;101804.41;5073815;28;20467;-71
2021/11/14 08:00:22;;;;;;;0.50;0.30;;;;;;;6.44;96.39;101806.63;5073377;28;20441;-69
2021/11/14 08:02:49;;;;;;;0.40;0.20;;;;;;;6.36;95.31;101805.16;5073224;28;20438;-71
2021/11/14 08:05:17;;;;;;;0.60;0.60;;;;;;;6.34;94.95;101809.97;5073403;28;20508;-69
2021/11/14 08:07:45;;;;;;;0.40;0.30;;;;;;;6.35;95.25;101806.22;5073446;28;20464;-70
2021/11/14 08:10:13;;;;;;;0.40;0.30;;;;;;;6.39;95.83;101801.97;5073410;28;20497;-70
2021/11/14 08:12:40;;;;;;;0.40;0.30;;;;;;;6.49;96.22;101812.09;5061530;28;20466;-70
2021/11/14 08:15:08;;;;;;;0.40;0.37;;;;;;;6.45;96.50;101821.72;5052906;28;20481;-70
2021/11/14 08:17:34;;;;;;;0.40;0.30;;;;;;;6.44;95.95;101825.47;5053295;28;20869;-70
2021/11/14 08:20:01;;;;;;;0.40;0.30;;;;;;;6.44;95.62;101825.47;5053224;28;20820;-71
2021/11/14 08:22:29;;;;;;;0.40;0.30;;;;;;;6.47;95.49;101825.00;5053011;28;20894;-70
2021/11/14 08:24:56;;;;;;;0.40;0.30;;;;;;;6.54;95.29;101831.00;5053189;28;20438;-70
2021/11/14 08:27:22;;;;;;;0.40;0.30;;;;;;;6.67;94.63;101832.59;5053276;28;20442;-70
2021/11/14 08:29:50;;;;;;;0.40;0.30;;;;;;;6.80;95.04;101830.38;5053161;28;20441;-71
2021/11/14 08:32:16;;;;;;;0.40;0.40;;;;;;;6.94;95.49;101827.34;5053100;28;20540;-70
2021/11/14 08:34:43;;;;;;;0.60;0.60;;;;;;;7.03;96.35;101823.19;5052971;28;20489;-70
2021/11/14 08:37:10;;;;;;;0.40;0.30;;;;;;;7.12;96.68;101828.97;5053099;28;20535;-70
2021/11/14 08:39:38;;;;;;;0.40;0.30;;;;;;;7.27;96.24;101830.03;5053085;28;20446;-70
2021/11/14 08:42:05;;;;;;;0.40;0.30;;;;;;;7.38;96.15;101836.34;5053060;28;20442;-70
2021/11/14 08:44:31;;;;;;;1.80;1.70;;;;;;;7.43;96.04;101844.50;5053033;28;20442;-70
2021/11/14 08:46:58;;;;;;;0.70;0.70;;;;;;;7.55;95.78;101845.22;5052918;28;20466;-70
2021/11/14 08:49:24;;;;;;;0.40;0.30;;;;;;;7.78;95.41;101856.84;5052701;28;20442;-70
2021/11/14 08:51:51;;;;;;;0.40;0.30;;;;;;;7.92;94.90;101849.19;5052983;28;20857;-70
2021/11/14 08:54:18;;;;;;;0.40;0.30;;;;;;;8.05;94.36;101859.59;5052889;28;20478;-70
2021/11/14 08:56:46;;;;;;;0.40;0.30;;;;;;;8.13;93.67;101861.03;5055345;28;20998;-70
2021/11/14 08:59:13;;;;;;;0.40;0.20;;;;;;;8.09;93.49;101863.41;5056982;28;20445;-70
2021/11/14 09:01:39;;;;;;;1.33;1.27;;;;;;;8.16;93.74;101874.84;5056886;28;20496;-70
2021/11/14 09:04:07;;;;;;;0.40;0.30;;;;;;;8.20;93.71;101875.16;5056846;28;20448;-70
2021/11/14 09:06:33;;;;;;;1.00;0.90;;;;;;;8.21;93.57;101883.00;5056454;28;20477;-70
2021/11/14 09:09:00;;;;;;;1.70;1.60;;;;;;;8.26;93.91;101882.22;5056461;28;20927;-70
2021/11/14 09:11:26;;;;;;;0.63;0.63;;;;;;;8.38;93.95;101892.91;5056444;28;21005;-70
2021/11/14 09:13:54;;;;;;;0.40;0.30;;;;;;;8.49;93.38;101900.03;5056300;28;21029;-70
2021/11/14 09:16:24;;;;;;;0.40;0.30;;;;;;;8.52;93.12;101900.34;5056574;28;20469;-70
2021/11/14 09:18:51;;;;;;;0.40;0.30;;;;;;;8.51;93.03;101898.72;5056330;28;20450;-70
2021/11/14 09:21:17;;;;;;;0.50;0.40;;;;;;;8.57;92.95;101905.81;5056614;28;20438;-70
2021/11/14 09:23:43;;;;;;;0.53;0.50;;;;;;;8.62;92.73;101915.84;5056556;28;20426;-68
2021/11/14 09:26:10;;;;;;;1.00;1.00;;;;;;;8.67;92.94;101926.69;5056394;28;20466;-69
2021/11/14 09:28:36;;;;;;;0.40;0.30;;;;;;;8.70;93.12;101922.69;5056444;28;20438;-69
2021/11/14 09:31:04;;;;;;;0.40;0.30;;;;;;;8.65;93.42;101923.44;5056357;28;20438;-69
2021/11/14 09:33:33;;;;;;;0.40;0.30;;;;;;;8.77;93.37;101924.13;5056275;28;20457;-69
2021/11/14 09:36:00;;;;;;;0.40;0.40;;;;;;;8.82;92.79;101929.56;5056183;28;20520;-69
2021/11/14 09:38:26;;;;;;;22.90;8.67;;;;;;;8.87;92.60;101930.69;5056234;28;20446;-70
2021/11/14 09:40:53;;;;;;;0.57;0.40;;;;;;;8.83;91.69;101928.47;5055818;28;20944;-67
2021/11/14 09:43:20;;;;;;;0.60;0.60;;;;;;;8.77;91.08;101943.03;5056228;28;20438;-70
2021/11/14 09:45:49;;;;;;;0.80;0.60;;;;;;;8.51;90.33;101941.13;5055938;28;20488;-69
2021/11/14 09:48:18;;;;;;;0.40;0.30;;;;;;;8.43;91.11;101934.28;5056059;28;20448;-69
2021/11/14 09:50:45;;;;;;;0.40;0.40;;;;;;;8.46;91.04;101938.38;5055645;28;20492;-70
2021/11/14 09:53:12;;;;;;;8.03;4.20;;;;;;;8.41;91.67;101931.03;5055840;28;20451;-69
2021/11/14 09:55:38;;;;;;;4.77;4.57;;;;;;;8.41;92.39;101941.00;5055488;28;20489;-69
2021/11/14 09:58:06;;;;;;;0.50;0.50;;;;;;;8.42;92.79;101950.75;5055843;28;20450;-69
2021/11/14 10:00:34;;;;;;;2.00;1.90;;;;;;;8.47;93.59;101945.41;5055463;28;20442;-69
2021/11/14 10:03:01;;;;;;;14.07;4.03;;;;;;;8.49;93.31;101952.16;5055761;28;20442;-69
2021/11/14 10:05:29;;;;;;;0.40;0.30;;;;;;;8.55;93.32;101959.25;5055403;28;21006;-70
2021/11/14 10:07:58;;;;;;;0.53;0.53;;;;;;;8.64;92.40;101961.53;5054826;28;20445;-69
2021/11/14 10:10:27;;;;;;;1.53;1.43;;;;;;;8.72;91.27;101961.88;5055758;28;20450;-69
2021/11/14 10:12:54;;;;;;;0.40;0.30;;;;;;;8.75;89.97;101958.66;5055635;28;20465;-69
2021/11/14 10:15:23;;;;;;;0.40;0.30;;;;;;;8.73;89.34;101966.22;5055454;28;20482;-69
2021/11/14 10:17:52;;;;;;;0.97;0.97;;;;;;;8.79;89.83;101964.38;5055238;28;20454;-69
2021/11/14 10:20:22;;;;;;;0.40;0.30;;;;;;;8.82;89.56;101969.28;5055506;28;20785;-69
2021/11/14 10:22:52;;;;;;;12.50;4.57;;;;;;;8.81;89.56;101973.06;5054983;28;20478;-69
2021/11/14 10:25:18;;;;;;;0.63;0.53;;;;;;;8.85;89.09;101979.56;5055449;28;20490;-69
2021/11/14 10:27:49;;;;;;;0.40;0.30;;;;;;;8.89;88.76;101977.16;5055339;28;20446;-69
2021/11/14 10:30:15;;;;;;;0.40;0.30;;;;;;;8.88;89.13;101981.75;5055393;28;20423;-69
2021/11/14 10:32:42;;;;;;;4.93;4.50;;;;;;;8.86;89.22;101986.59;5055253;28;20450;-69
2021/11/14 10:35:10;;;;;;;0.40;0.30;;;;;;;8.90;90.18;101984.19;5054987;28;20486;-69
2021/11/14 10:37:43;;;;;;;0.50;0.40;;;;;;;8.92;90.62;101985.56;5055162;28;20438;-69
2021/11/14 10:40:14;;;;;;;0.40;0.30;;;;;;;8.92;91.14;101987.47;5055222;28;20860;-69
2021/11/14 10:42:46;;;;;;;0.40;0.30;;;;;;;8.94;91.28;101985.31;5055122;28;20431;-69
2021/11/14 10:45:12;;;;;;;2.70;2.47;;;;;;;8.95;91.18;101989.66;5055005;28;20458;-70
2021/11/14 10:47:39;;;;;;;1.90;1.80;;;;;;;9.05;91.30;101985.16;5054685;28;20445;-69
2021/11/14 10:50:07;;;;;;;0.50;0.30;;;;;;;9.10;90.73;101981.69;5054968;28;20473;-69
2021/11/14 10:52:35;;;;;;;5.10;2.40;;;;;;;9.11;90.59;101988.72;5054817;28;20449;-70
2021/11/14 10:55:05;;;;;;;0.40;0.30;;;;;;;9.09;90.51;101997.09;5054745;28;20482;-69
2021/11/14 10:57:35;;;;;;;0.40;0.30;;;;;;;9.14;90.41;102004.44;5055292;28;20438;-69
2021/11/14 11:00:05;;;;;;;0.40;0.30;;;;;;;9.19;90.48;101999.06;5054787;28;20483;-69
2021/11/14 11:02:32;;;;;;;0.50;0.47;;;;;;;9.17;90.32;101998.53;5054774;28;20438;-69
2021/11/14 11:05:10;;;;;;;0.40;0.30;;;;;;;9.21;89.88;102004.22;5054687;28;20442;-69
2021/11/14 11:07:36;;;;;;;0.60;0.60;;;;;;;9.18;89.28;102005.56;5054635;28;20433;-70
2021/11/14 11:10:04;;;;;;;45.20;9.90;;;;;;;9.17;88.39;102001.22;5054509;28;20438;-69
2021/11/14 11:12:31;;;;;;;2.33;2.20;;;;;;;9.09;87.15;101999.81;5061130;28;20496;-70
2021/11/14 11:15:03;;;;;;;0.40;0.30;;;;;;;9.00;87.35;101998.63;5074289;28;20562;-70
2021/11/14 11:17:41;;;;;;;0.40;0.30;;;;;;;9.03;87.51;102006.25;5074330;28;20847;-69
2021/11/14 11:20:11;;;;;;;0.80;0.80;;;;;;;9.05;87.46;102004.09;5074318;28;20445;-70
2021/11/14 11:22:48;;;;;;;1.53;1.43;;;;;;;9.07;87.70;102011.94;5074144;28;20523;-70
2021/11/14 11:25:15;;;;;;;0.40;0.30;;;;;;;9.06;87.69;102004.91;5074189;28;20886;-73
2021/11/14 11:27:53;;;;;;;0.40;0.30;;;;;;;8.98;88.08;102014.28;5074023;28;20805;-70
2021/11/14 11:30:27;;;;;;;0.40;0.37;;;;;;;8.96;89.36;102007.50;5074207;28;20421;-71
2021/11/14 11:32:54;;;;;;;0.40;0.20;;;;;;;9.02;89.94;102010.00;5074360;28;20777;-70